Terminal Aerodrome Forecast
Issued by NWS Goodland, KS

Home | Current Version | Previous Version | Text Only | Print | Product List | Glossary On
Versions: 1 2 3 4 5 6 7 8 9 10 11 12 13 14
758
FTUS43 KGLD 012320
TAFGLD
TAF
KGLD 012320Z 0200/0224 VRB05KT P6SM SCT130
     FM021100 30006KT P6SM SCT100
     FM021600 34006KT P6SM BKN100
     FM021800 03006KT P6SM BKN080=

USA.gov is the U.S. government's official web portal to all federal, state and local government web resources and services.